sensor_id;sensor_type;location;lat;lon;timestamp;P1;P2;P0
49686;PMS5003;36064;38.180;-122.272;2023-09-08T00:00:00;2.0;2.0;
49686;PMS5003;36064;38.180;-122.272;2023-09-08T00:05:00;4.8;4.0;
49686;PMS5003;36064;38.180;-122.272;2023-09-08T00:10:00;3.8;3.2;
49686;PMS5003;36064;38.180;-122.272;2023-09-08T00:15:00;6.0;4.0;
49686;PMS5003;36064;38.180;-122.272;2023-09-08T00:20:00;3.2;2.8;
49686;PMS5003;36064;38.180;-122.272;2023-09-08T00:25:00;4.0;2.4;
49686;PMS5003;36064;38.180;-122.272;2023-09-08T00:30:00;3.0;2.2;
49686;PMS5003;36064;38.180;-122.272;2023-09-08T00:35:00;3.0;2.6;
49686;PMS5003;36064;38.180;-122.272;2023-09-08T00:40:00;2.4;2.6;
49686;PMS5003;36064;38.180;-122.272;2023-09-08T00:45:00;3.2;2.8;
49686;PMS5003;36064;38.180;-122.272;2023-09-08T00:50:00;3.8;2.8;
49686;PMS5003;36064;38.180;-122.272;2023-09-08T00:55:00;3.6;3.2;
49686;PMS5003;36064;38.180;-122.272;2023-09-08T01:00:01;3.4;3.2;
49686;PMS5003;36064;38.180;-122.272;2023-09-08T01:05:00;3.02;3.02;
49686;PMS5003;36064;38.180;-122.272;2023-09-08T01:10:00;2.8;2.0;
49686;PMS5003;36064;38.180;-122.272;2023-09-08T01:15:00;2.8;2.8;
49686;PMS5003;36064;38.180;-122.272;2023-09-08T01:20:01;3.0;2.2;
49686;PMS5003;36064;38.180;-122.272;2023-09-08T01:30:01;2.6;2.6;
49686;PMS5003;36064;38.180;-122.272;2023-09-08T01:35:00;3.6;3.6;
49686;PMS5003;36064;38.180;-122.272;2023-09-08T01:40:00;2.6;2.6;
49686;PMS5003;36064;38.180;-122.272;2023-09-08T01:45:00;3.0;3.0;
49686;PMS5003;36064;38.180;-122.272;2023-09-08T01:50:00;3.0;3.0;
49686;PMS5003;36064;38.180;-122.272;2023-09-08T01:55:00;1.6;1.6;
49686;PMS5003;36064;38.180;-122.272;2023-09-08T02:00:01;3.0;2.6;
49686;PMS5003;36064;38.180;-122.272;2023-09-08T02:05:00;2.6;2.6;
49686;PMS5003;36064;38.180;-122.272;2023-09-08T02:10:00;2.4;2.4;
49686;PMS5003;36064;38.180;-122.272;2023-09-08T02:15:00;2.4;2.4;
49686;PMS5003;36064;38.180;-122.272;2023-09-08T02:20:00;2.4;2.4;
49686;PMS5003;36064;38.180;-122.272;2023-09-08T02:25:00;2.4;2.4;
49686;PMS5003;36064;38.180;-122.272;2023-09-08T02:30:00;2.8;2.8;
49686;PMS5003;36064;38.180;-122.272;2023-09-08T02:35:00;2.4;2.6;
49686;PMS5003;36064;38.180;-122.272;2023-09-08T02:40:01;3.6;2.2;
49686;PMS5003;36064;38.180;-122.272;2023-09-08T02:45:00;3.0;2.6;
49686;PMS5003;36064;38.180;-122.272;2023-09-08T02:50:00;0.6;0.6;
49686;PMS5003;36064;38.180;-122.272;2023-09-08T02:55:00;2.0;0.6;
49686;PMS5003;36064;38.180;-122.272;2023-09-08T03:00:00;2.8;0.6;
49686;PMS5003;36064;38.180;-122.272;2023-09-08T03:05:00;1.6;1.6;
49686;PMS5003;36064;38.180;-122.272;2023-09-08T03:10:00;1.4;1.4;
49686;PMS5003;36064;38.180;-122.272;2023-09-08T03:15:01;1.4;1.4;
49686;PMS5003;36064;38.180;-122.272;2023-09-08T03:20:00;0.8;0.8;
49686;PMS5003;36064;38.180;-122.272;2023-09-08T03:25:00;2.4;0.8;
49686;PMS5003;36064;38.180;-122.272;2023-09-08T03:30:00;2.0;0.8;
49686;PMS5003;36064;38.180;-122.272;2023-09-08T03:35:00;2.4;2.0;
49686;PMS5003;36064;38.180;-122.272;2023-09-08T03:40:00;1.6;1.6;
49686;PMS5003;36064;38.180;-122.272;2023-09-08T03:45:00;1.4;1.2;
49686;PMS5003;36064;38.180;-122.272;2023-09-08T03:50:00;1.4;1.8;
49686;PMS5003;36064;38.180;-122.272;2023-09-08T03:55:00;1.4;1.6;
49686;PMS5003;36064;38.180;-122.272;2023-09-08T04:00:00;1.6;1.6;
49686;PMS5003;36064;38.180;-122.272;2023-09-08T04:05:00;2.6;2.6;
49686;PMS5003;36064;38.180;-122.272;2023-09-08T04:10:00;2.6;2.6;
49686;PMS5003;36064;38.180;-122.272;2023-09-08T04:15:00;0.8;0.8;
49686;PMS5003;36064;38.180;-122.272;2023-09-08T04:20:00;1.2;1.2;
49686;PMS5003;36064;38.180;-122.272;2023-09-08T04:25:00;1.8;1.0;
49686;PMS5003;36064;38.180;-122.272;2023-09-08T04:30:00;1.8;1.4;
49686;PMS5003;36064;38.180;-122.272;2023-09-08T04:35:00;1.2;0.8;
49686;PMS5003;36064;38.180;-122.272;2023-09-08T04:40:00;0.6;0.6;
49686;PMS5003;36064;38.180;-122.272;2023-09-08T04:45:00;0.4;0.4;
49686;PMS5003;36064;38.180;-122.272;2023-09-08T04:50:00;1.0;1.0;
49686;PMS5003;36064;38.180;-122.272;2023-09-08T04:55:00;3.6;2.4;
49686;PMS5003;36064;38.180;-122.272;2023-09-08T05:00:01;4.0;2.4;
49686;PMS5003;36064;38.180;-122.272;2023-09-08T05:05:00;3.2;2.4;
49686;PMS5003;36064;38.180;-122.272;2023-09-08T05:10:00;3.6;3.0;
49686;PMS5003;36064;38.180;-122.272;2023-09-08T05:15:00;1.6;1.6;
49686;PMS5003;36064;38.180;-122.272;2023-09-08T05:20:00;3.4;3.0;
49686;PMS5003;36064;38.180;-122.272;2023-09-08T05:25:00;5.0;3.2;
49686;PMS5003;36064;38.180;-122.272;2023-09-08T05:30:00;4.6;3.0;
49686;PMS5003;36064;38.180;-122.272;2023-09-08T05:35:00;3.0;2.8;
49686;PMS5003;36064;38.180;-122.272;2023-09-08T05:40:00;4.0;4.0;
49686;PMS5003;36064;38.180;-122.272;2023-09-08T05:45:01;3.0;3.0;
49686;PMS5003;36064;38.180;-122.272;2023-09-08T05:50:00;3.6;3.6;
49686;PMS5003;36064;38.180;-122.272;2023-09-08T05:55:00;4.0;4.0;
49686;PMS5003;36064;38.180;-122.272;2023-09-08T06:00:00;3.8;3.8;
49686;PMS5003;36064;38.180;-122.272;2023-09-08T06:05:00;6.4;6.0;
49686;PMS5003;36064;38.180;-122.272;2023-09-08T06:10:00;5.6;6.2;
49686;PMS5003;36064;38.180;-122.272;2023-09-08T06:15:01;5.2;5.0;
49686;PMS5003;36064;38.180;-122.272;2023-09-08T06:20:00;10.4;9.2;
49686;PMS5003;36064;38.180;-122.272;2023-09-08T06:25:00;6.8;6.8;
49686;PMS5003;36064;38.180;-122.272;2023-09-08T06:30:00;7.0;6.6;
49686;PMS5003;36064;38.180;-122.272;2023-09-08T06:35:00;8.8;8.6;
49686;PMS5003;36064;38.180;-122.272;2023-09-08T06:40:00;12.8;12.4;
49686;PMS5003;36064;38.180;-122.272;2023-09-08T06:45:00;9.2;8.8;
49686;PMS5003;36064;38.180;-122.272;2023-09-08T06:50:00;10.0;9.8;
49686;PMS5003;36064;38.180;-122.272;2023-09-08T06:55:00;11.0;9.6;
49686;PMS5003;36064;38.180;-122.272;2023-09-08T07:00:00;12.8;10.6;
49686;PMS5003;36064;38.180;-122.272;2023-09-08T07:05:00;10.0;9.8;
49686;PMS5003;36064;38.180;-122.272;2023-09-08T07:10:00;11.0;8.2;
49686;PMS5003;36064;38.180;-122.272;2023-09-08T07:15:00;9.8;8.8;
49686;PMS5003;36064;38.180;-122.272;2023-09-08T07:20:00;9.2;7.6;
49686;PMS5003;36064;38.180;-122.272;2023-09-08T07:25:00;7.4;6.6;
49686;PMS5003;36064;38.180;-122.272;2023-09-08T07:30:00;7.6;7.4;
49686;PMS5003;36064;38.180;-122.272;2023-09-08T07:35:00;6.4;6.0;
49686;PMS5003;36064;38.180;-122.272;2023-09-08T07:40:00;6.6;6.4;
49686;PMS5003;36064;38.180;-122.272;2023-09-08T07:45:00;6.6;6.2;
49686;PMS5003;36064;38.180;-122.272;2023-09-08T07:55:00;9.4;9.0;
49686;PMS5003;36064;38.180;-122.272;2023-09-08T08:00:01;8.0;7.8;
49686;PMS5003;36064;38.180;-122.272;2023-09-08T08:05:00;6.8;6.8;
49686;PMS5003;36064;38.180;-122.272;2023-09-08T08:10:00;5.2;5.2;
49686;PMS5003;36064;38.180;-122.272;2023-09-08T08:15:01;6.2;5.2;
49686;PMS5003;36064;38.180;-122.272;2023-09-08T08:20:00;6.6;5.4;
49686;PMS5003;36064;38.180;-122.272;2023-09-08T08:25:00;5.4;5.4;
49686;PMS5003;36064;38.180;-122.272;2023-09-08T08:30:00;6.2;5.4;
49686;PMS5003;36064;38.180;-122.272;2023-09-08T08:35:00;6.4;5.6;
49686;PMS5003;36064;38.180;-122.272;2023-09-08T08:40:00;4.8;4.4;
49686;PMS5003;36064;38.180;-122.272;2023-09-08T08:45:01;6.4;6.0;
49686;PMS5003;36064;38.180;-122.272;2023-09-08T08:50:00;6.2;5.8;
49686;PMS5003;36064;38.180;-122.272;2023-09-08T08:55:00;6.2;3.6;
49686;PMS5003;36064;38.180;-122.272;2023-09-08T09:00:00;5.6;5.4;
49686;PMS5003;36064;38.180;-122.272;2023-09-08T09:05:00;7.6;7.6;
49686;PMS5003;36064;38.180;-122.272;2023-09-08T09:10:00;5.8;5.8;
49686;PMS5003;36064;38.180;-122.272;2023-09-08T09:15:00;5.4;4.0;
49686;PMS5003;36064;38.180;-122.272;2023-09-08T09:25:00;6.8;4.6;
49686;PMS5003;36064;38.180;-122.272;2023-09-08T09:30:01;4.6;4.6;
49686;PMS5003;36064;38.180;-122.272;2023-09-08T09:35:00;7.2;6.2;
49686;PMS5003;36064;38.180;-122.272;2023-09-08T09:40:00;5.6;5.6;
49686;PMS5003;36064;38.180;-122.272;2023-09-08T09:45:01;5.0;4.6;
49686;PMS5003;36064;38.180;-122.272;2023-09-08T09:50:00;6.8;5.6;
49686;PMS5003;36064;38.180;-122.272;2023-09-08T09:55:00;7.8;5.2;
49686;PMS5003;36064;38.180;-122.272;2023-09-08T10:00:01;3.8;3.2;
49686;PMS5003;36064;38.180;-122.272;2023-09-08T10:05:09;8.4;6.8;
49686;PMS5003;36064;38.180;-122.272;2023-09-08T10:10:00;5.6;5.4;
49686;PMS5003;36064;38.180;-122.272;2023-09-08T10:15:00;8.0;6.4;
49686;PMS5003;36064;38.180;-122.272;2023-09-08T10:20:00;8.4;6.0;
49686;PMS5003;36064;38.180;-122.272;2023-09-08T10:25:01;8.0;8.0;
49686;PMS5003;36064;38.180;-122.272;2023-09-08T10:30:00;9.0;7.4;
49686;PMS5003;36064;38.180;-122.272;2023-09-08T10:35:00;7.0;6.4;
49686;PMS5003;36064;38.180;-122.272;2023-09-08T10:45:01;9.2;8.6;
49686;PMS5003;36064;38.180;-122.272;2023-09-08T10:50:00;9.0;7.8;
49686;PMS5003;36064;38.180;-122.272;2023-09-08T10:55:00;9.8;9.4;
49686;PMS5003;36064;38.180;-122.272;2023-09-08T11:00:01;8.8;8.8;
49686;PMS5003;36064;38.180;-122.272;2023-09-08T11:05:00;9.2;9.2;
49686;PMS5003;36064;38.180;-122.272;2023-09-08T11:10:00;12.2;12.2;
49686;PMS5003;36064;38.180;-122.272;2023-09-08T11:15:01;10.6;10.2;
49686;PMS5003;36064;38.180;-122.272;2023-09-08T11:20:01;9.2;8.6;
49686;PMS5003;36064;38.180;-122.272;2023-09-08T11:25:00;9.8;9.4;
49686;PMS5003;36064;38.180;-122.272;2023-09-08T11:30:00;13.6;12.4;
49686;PMS5003;36064;38.180;-122.272;2023-09-08T11:35:01;14.2;14.0;
49686;PMS5003;36064;38.180;-122.272;2023-09-08T11:40:00;12.23;11.43;
49686;PMS5003;36064;38.180;-122.272;2023-09-08T11:45:00;9.8;9.4;
49686;PMS5003;36064;38.180;-122.272;2023-09-08T11:50:00;11.8;11.0;
49686;PMS5003;36064;38.180;-122.272;2023-09-08T11:55:00;14.0;13.2;
49686;PMS5003;36064;38.180;-122.272;2023-09-08T12:00:00;12.2;12.2;
49686;PMS5003;36064;38.180;-122.272;2023-09-08T12:05:00;10.0;10.0;
49686;PMS5003;36064;38.180;-122.272;2023-09-08T12:10:06;10.8;10.0;
49686;PMS5003;36064;38.180;-122.272;2023-09-08T12:15:00;14.0;12.8;
49686;PMS5003;36064;38.180;-122.272;2023-09-08T12:20:00;10.4;10.0;
49686;PMS5003;36064;38.180;-122.272;2023-09-08T12:25:01;11.19;11.19;
49686;PMS5003;36064;38.180;-122.272;2023-09-08T12:30:01;10.79;9.2;
49686;PMS5003;36064;38.180;-122.272;2023-09-08T12:35:01;8.4;7.8;
49686;PMS5003;36064;38.180;-122.272;2023-09-08T12:40:00;7.8;7.8;
49686;PMS5003;36064;38.180;-122.272;2023-09-08T12:45:00;8.8;8.4;
49686;PMS5003;36064;38.180;-122.272;2023-09-08T12:50:00;9.8;9.0;
49686;PMS5003;36064;38.180;-122.272;2023-09-08T12:55:00;11.4;11.2;
49686;PMS5003;36064;38.180;-122.272;2023-09-08T13:00:00;11.2;10.4;
49686;PMS5003;36064;38.180;-122.272;2023-09-08T13:05:00;19.6;18.0;
49686;PMS5003;36064;38.180;-122.272;2023-09-08T13:10:00;15.8;14.2;
49686;PMS5003;36064;38.180;-122.272;2023-09-08T13:15:01;14.6;15.2;
49686;PMS5003;36064;38.180;-122.272;2023-09-08T13:20:01;12.4;11.6;
49686;PMS5003;36064;38.180;-122.272;2023-09-08T13:25:00;11.2;11.2;
49686;PMS5003;36064;38.180;-122.272;2023-09-08T13:30:09;11.0;10.2;
49686;PMS5003;36064;38.180;-122.272;2023-09-08T13:35:00;10.8;10.4;
49686;PMS5003;36064;38.180;-122.272;2023-09-08T13:40:00;14.26;13.04;
49686;PMS5003;36064;38.180;-122.272;2023-09-08T13:45:00;14.36;12.98;
49686;PMS5003;36064;38.180;-122.272;2023-09-08T13:50:00;14.0;12.0;
49686;PMS5003;36064;38.180;-122.272;2023-09-08T13:55:00;10.8;10.8;
49686;PMS5003;36064;38.180;-122.272;2023-09-08T14:00:00;12.0;10.4;
49686;PMS5003;36064;38.180;-122.272;2023-09-08T14:05:00;12.0;10.8;
49686;PMS5003;36064;38.180;-122.272;2023-09-08T14:10:00;13.6;12.4;
49686;PMS5003;36064;38.180;-122.272;2023-09-08T14:15:00;14.6;14.4;
49686;PMS5003;36064;38.180;-122.272;2023-09-08T14:20:00;13.0;11.4;
49686;PMS5003;36064;38.180;-122.272;2023-09-08T14:25:00;14.0;12.6;
49686;PMS5003;36064;38.180;-122.272;2023-09-08T14:30:00;15.4;14.6;
49686;PMS5003;36064;38.180;-122.272;2023-09-08T14:35:00;12.8;12.4;
49686;PMS5003;36064;38.180;-122.272;2023-09-08T14:40:00;10.4;9.2;
49686;PMS5003;36064;38.180;-122.272;2023-09-08T14:45:01;10.6;10.2;
49686;PMS5003;36064;38.180;-122.272;2023-09-08T14:50:00;13.2;12.6;
49686;PMS5003;36064;38.180;-122.272;2023-09-08T14:55:00;15.0;13.4;
49686;PMS5003;36064;38.180;-122.272;2023-09-08T15:00:01;13.6;12.0;
49686;PMS5003;36064;38.180;-122.272;2023-09-08T15:05:00;14.4;11.8;
49686;PMS5003;36064;38.180;-122.272;2023-09-08T15:10:00;13.8;13.4;
49686;PMS5003;36064;38.180;-122.272;2023-09-08T15:15:00;16.4;14.4;
49686;PMS5003;36064;38.180;-122.272;2023-09-08T15:20:00;14.6;13.4;
49686;PMS5003;36064;38.180;-122.272;2023-09-08T15:25:00;13.0;11.8;
49686;PMS5003;36064;38.180;-122.272;2023-09-08T15:30:00;16.0;14.6;
49686;PMS5003;36064;38.180;-122.272;2023-09-08T15:35:00;15.6;13.4;
49686;PMS5003;36064;38.180;-122.272;2023-09-08T15:40:00;14.4;12.0;
49686;PMS5003;36064;38.180;-122.272;2023-09-08T15:45:00;16.6;14.6;
49686;PMS5003;36064;38.180;-122.272;2023-09-08T15:50:00;15.6;13.8;
49686;PMS5003;36064;38.180;-122.272;2023-09-08T15:55:00;12.6;11.8;
49686;PMS5003;36064;38.180;-122.272;2023-09-08T16:00:01;12.6;11.8;
49686;PMS5003;36064;38.180;-122.272;2023-09-08T16:05:00;10.2;9.2;
49686;PMS5003;36064;38.180;-122.272;2023-09-08T16:10:00;8.0;7.4;
49686;PMS5003;36064;38.180;-122.272;2023-09-08T16:15:00;9.0;7.8;
49686;PMS5003;36064;38.180;-122.272;2023-09-08T16:20:00;6.0;7.8;
49686;PMS5003;36064;38.180;-122.272;2023-09-08T16:25:00;10.8;9.0;
49686;PMS5003;36064;38.180;-122.272;2023-09-08T16:30:00;8.2;6.6;
49686;PMS5003;36064;38.180;-122.272;2023-09-08T16:35:00;6.2;5.8;
49686;PMS5003;36064;38.180;-122.272;2023-09-08T16:40:00;25.01;18.4;
49686;PMS5003;36064;38.180;-122.272;2023-09-08T16:45:00;19.6;7.4;
49686;PMS5003;36064;38.180;-122.272;2023-09-08T16:50:00;5.0;3.8;
49686;PMS5003;36064;38.180;-122.272;2023-09-08T16:55:00;6.8;4.4;
49686;PMS5003;36064;38.180;-122.272;2023-09-08T17:00:01;9.2;8.6;
49686;PMS5003;36064;38.180;-122.272;2023-09-08T17:05:00;8.8;7.0;
49686;PMS5003;36064;38.180;-122.272;2023-09-08T17:10:01;12.4;9.0;
49686;PMS5003;36064;38.180;-122.272;2023-09-08T17:15:00;4.6;4.6;
49686;PMS5003;36064;38.180;-122.272;2023-09-08T17:20:00;5.2;5.2;
49686;PMS5003;36064;38.180;-122.272;2023-09-08T17:25:00;4.4;4.0;
49686;PMS5003;36064;38.180;-122.272;2023-09-08T17:30:00;6.2;5.2;
49686;PMS5003;36064;38.180;-122.272;2023-09-08T17:35:00;5.0;4.8;
49686;PMS5003;36064;38.180;-122.272;2023-09-08T17:40:00;5.0;4.6;
49686;PMS5003;36064;38.180;-122.272;2023-09-08T17:45:01;5.2;6.2;
49686;PMS5003;36064;38.180;-122.272;2023-09-08T17:50:00;7.2;6.8;
49686;PMS5003;36064;38.180;-122.272;2023-09-08T17:55:00;6.2;5.8;
49686;PMS5003;36064;38.180;-122.272;2023-09-08T18:00:01;7.4;7.0;
49686;PMS5003;36064;38.180;-122.272;2023-09-08T18:05:00;9.4;7.6;
49686;PMS5003;36064;38.180;-122.272;2023-09-08T18:10:00;5.8;5.2;
49686;PMS5003;36064;38.180;-122.272;2023-09-08T18:15:00;39.4;29.4;
49686;PMS5003;36064;38.180;-122.272;2023-09-08T18:20:00;13.4;11.2;
49686;PMS5003;36064;38.180;-122.272;2023-09-08T18:25:00;11.6;9.0;
49686;PMS5003;36064;38.180;-122.272;2023-09-08T18:30:00;30.19;21.0;
49686;PMS5003;36064;38.180;-122.272;2023-09-08T18:35:00;11.0;9.6;
49686;PMS5003;36064;38.180;-122.272;2023-09-08T18:40:00;12.4;10.4;
49686;PMS5003;36064;38.180;-122.272;2023-09-08T18:45:01;25.0;19.8;
49686;PMS5003;36064;38.180;-122.272;2023-09-08T18:50:00;12.6;11.0;
49686;PMS5003;36064;38.180;-122.272;2023-09-08T18:55:00;7.8;6.6;
49686;PMS5003;36064;38.180;-122.272;2023-09-08T19:00:00;13.2;11.2;
49686;PMS5003;36064;38.180;-122.272;2023-09-08T19:05:00;11.0;9.8;
49686;PMS5003;36064;38.180;-122.272;2023-09-08T19:10:00;7.8;7.0;
49686;PMS5003;36064;38.180;-122.272;2023-09-08T19:15:00;10.2;8.2;
49686;PMS5003;36064;38.180;-122.272;2023-09-08T19:20:00;7.4;5.2;
49686;PMS5003;36064;38.180;-122.272;2023-09-08T19:25:00;3.0;2.6;
49686;PMS5003;36064;38.180;-122.272;2023-09-08T19:30:00;22.6;15.2;
49686;PMS5003;36064;38.180;-122.272;2023-09-08T19:35:00;3.0;3.0;
49686;PMS5003;36064;38.180;-122.272;2023-09-08T19:40:00;2.4;2.4;
49686;PMS5003;36064;38.180;-122.272;2023-09-08T19:45:00;7.6;4.0;
49686;PMS5003;36064;38.180;-122.272;2023-09-08T19:50:00;3.0;1.8;
49686;PMS5003;36064;38.180;-122.272;2023-09-08T19:55:00;1.6;1.6;
49686;PMS5003;36064;38.180;-122.272;2023-09-08T20:00:01;1.4;16.0;
49686;PMS5003;36064;38.180;-122.272;2023-09-08T20:05:00;20.2;13.8;
49686;PMS5003;36064;38.180;-122.272;2023-09-08T20:10:00;2.0;1.8;
49686;PMS5003;36064;38.180;-122.272;2023-09-08T20:15:00;1.4;1.4;
49686;PMS5003;36064;38.180;-122.272;2023-09-08T20:20:00;1.4;1.4;
49686;PMS5003;36064;38.180;-122.272;2023-09-08T20:25:00;34.7;23.38;
49686;PMS5003;36064;38.180;-122.272;2023-09-08T20:30:00;4.74;3.61;
49686;PMS5003;36064;38.180;-122.272;2023-09-08T20:35:00;2.0;2.0;
49686;PMS5003;36064;38.180;-122.272;2023-09-08T20:40:00;8.0;5.6;
49686;PMS5003;36064;38.180;-122.272;2023-09-08T20:45:00;1.6;1.6;
49686;PMS5003;36064;38.180;-122.272;2023-09-08T20:50:00;1.8;1.4;
49686;PMS5003;36064;38.180;-122.272;2023-09-08T20:55:00;9.0;6.4;
49686;PMS5003;36064;38.180;-122.272;2023-09-08T21:00:00;3.2;3.0;
49686;PMS5003;36064;38.180;-122.272;2023-09-08T21:05:00;2.6;2.6;
49686;PMS5003;36064;38.180;-122.272;2023-09-08T21:10:00;2.0;2.0;
49686;PMS5003;36064;38.180;-122.272;2023-09-08T21:15:00;3.2;2.4;
49686;PMS5003;36064;38.180;-122.272;2023-09-08T21:20:00;3.2;2.4;
49686;PMS5003;36064;38.180;-122.272;2023-09-08T21:25:00;1.6;1.6;
49686;PMS5003;36064;38.180;-122.272;2023-09-08T21:30:01;9.0;5.6;
49686;PMS5003;36064;38.180;-122.272;2023-09-08T21:35:00;2.4;2.0;
49686;PMS5003;36064;38.180;-122.272;2023-09-08T21:40:00;2.4;1.6;
49686;PMS5003;36064;38.180;-122.272;2023-09-08T21:45:01;0.2;0.4;
49686;PMS5003;36064;38.180;-122.272;2023-09-08T21:50:00;2.0;1.8;
49686;PMS5003;36064;38.180;-122.272;2023-09-08T21:55:00;1.2;1.2;
49686;PMS5003;36064;38.180;-122.272;2023-09-08T22:00:00;1.2;1.2;
49686;PMS5003;36064;38.180;-122.272;2023-09-08T22:05:00;0.6;0.6;
49686;PMS5003;36064;38.180;-122.272;2023-09-08T22:10:00;0.2;0.2;
49686;PMS5003;36064;38.180;-122.272;2023-09-08T22:15:00;0.6;0.6;
49686;PMS5003;36064;38.180;-122.272;2023-09-08T22:20:00;0.6;0.6;
49686;PMS5003;36064;38.180;-122.272;2023-09-08T22:25:00;0.4;0.4;
49686;PMS5003;36064;38.180;-122.272;2023-09-08T22:30:00;0.2;0.0;
49686;PMS5003;36064;38.180;-122.272;2023-09-08T22:35:00;0.6;0.6;
49686;PMS5003;36064;38.180;-122.272;2023-09-08T22:40:00;1.0;0.2;
49686;PMS5003;36064;38.180;-122.272;2023-09-08T22:45:00;1.4;0.6;
49686;PMS5003;36064;38.180;-122.272;2023-09-08T22:50:01;1.4;1.0;
49686;PMS5003;36064;38.180;-122.272;2023-09-08T22:55:00;2.0;1.0;
49686;PMS5003;36064;38.180;-122.272;2023-09-08T23:00:00;1.0;1.0;
49686;PMS5003;36064;38.180;-122.272;2023-09-08T23:05:00;1.0;1.0;
49686;PMS5003;36064;38.180;-122.272;2023-09-08T23:10:00;1.4;1.4;
49686;PMS5003;36064;38.180;-122.272;2023-09-08T23:15:00;2.2;1.8;
49686;PMS5003;36064;38.180;-122.272;2023-09-08T23:20:00;2.0;1.2;
49686;PMS5003;36064;38.180;-122.272;2023-09-08T23:25:00;1.8;1.8;
49686;PMS5003;36064;38.180;-122.272;2023-09-08T23:30:00;1.8;1.8;
49686;PMS5003;36064;38.180;-122.272;2023-09-08T23:35:00;1.8;1.8;
49686;PMS5003;36064;38.180;-122.272;2023-09-08T23:40:00;1.4;1.0;
49686;PMS5003;36064;38.180;-122.272;2023-09-08T23:45:00;3.2;1.2;
49686;PMS5003;36064;38.180;-122.272;2023-09-08T23:50:00;2.4;1.2;
49686;PMS5003;36064;38.180;-122.272;2023-09-08T23:55:00;1.2;1.2;
